TFM - Tactical Decision Aid (Experimental) INFO Settings
ID: Runway Winds: CIG/VIS Threshold: METAR Board: Map:

Kclt - Charlotte-Douglas Intl

Updated at: 1535 UTC 04 May 2016
Latest TAF at: 1500 UTC 04 May 2016

TAF Board

Time1452Z04/16Z04/17Z04/18Z04/19Z04/20Z04/21Z04/22Z04/23Z05/00Z05/01Z05/02Z05/03Z05/04Z
TypeOBSPRVLPRVLPRVLPRVLPRVLPRVLPRVLPRVLPRVLPRVLPRVLPRVLPRVL
VIS10>6>6>6>6>6>6>6>6>6>6>6>6>6
CIG50505050----------------6060
CoverBKNBKNBKNBKNSCTSCTSCTSCTFEWFEWFEWFEWBKNBKN
FltCatVFRVFRVFRVFRVFRVFRVFRVFRVFRVFRVFRVFRVFRVFR
WX----------------------------
WDir330330330330260260260260240240240240230230
WSpd33336666444433
WGst----------------------------
TAF
KCLT 041500Z 0415/0512 33003KT P6SM BKN050
  FM041900 26006KT P6SM SCT060
  FM042300 24004KT P6SM FEW120
  FM050300 23003KT P6SM BKN060
  FM051000 30005KT P6SM SCT050


METAR
KCLT 041452Z 33003KT 10SM BKN050 19/10 A2973 RMK AO2 SLP063 T01900100 58005 PNO $

TAF/METAR Board Legend

Potential Impact
  None Marginal Slight Moderate High
Visibility (sm) > ≤X≤ <
Ceiling (100 ft) > ≤X≤ <
Wind Speed (kt) <10 10≤X<20 20≤X<30 ≥30
Wind Gust (kt) <15 15≤X<25 25≤X<35 ≥35
Weather No Wx Reported VCTS -TS,-FZRA TS,FZRA +TS,+FZRA